sensor_id;sensor_type;location;lat;lon;timestamp;pressure;altitude;pressure_sealevel;temperature
20733;BMP180;10527;52.124;5.196;2023-08-30T00:01:56;100737.00;;;25.90
20733;BMP180;10527;52.124;5.196;2023-08-30T00:04:25;100738.00;;;25.80
20733;BMP180;10527;52.124;5.196;2023-08-30T00:06:52;100729.00;;;25.80
20733;BMP180;10527;52.124;5.196;2023-08-30T00:09:19;100730.00;;;25.80
20733;BMP180;10527;52.124;5.196;2023-08-30T00:11:46;100726.00;;;25.80
20733;BMP180;10527;52.124;5.196;2023-08-30T00:14:13;100723.00;;;25.80
20733;BMP180;10527;52.124;5.196;2023-08-30T00:16:39;100715.00;;;25.80
20733;BMP180;10527;52.124;5.196;2023-08-30T00:19:09;100706.00;;;25.70
20733;BMP180;10527;52.124;5.196;2023-08-30T00:21:36;100709.00;;;25.70
20733;BMP180;10527;52.124;5.196;2023-08-30T00:24:04;100712.00;;;25.70
20733;BMP180;10527;52.124;5.196;2023-08-30T00:26:32;100704.00;;;25.70
20733;BMP180;10527;52.124;5.196;2023-08-30T00:28:59;100709.00;;;25.70
20733;BMP180;10527;52.124;5.196;2023-08-30T00:31:35;100707.00;;;25.70
20733;BMP180;10527;52.124;5.196;2023-08-30T00:34:05;100698.00;;;25.70
20733;BMP180;10527;52.124;5.196;2023-08-30T00:36:34;100697.00;;;25.70
20733;BMP180;10527;52.124;5.196;2023-08-30T00:39:02;100701.00;;;25.70
20733;BMP180;10527;52.124;5.196;2023-08-30T00:41:30;100702.00;;;25.70
20733;BMP180;10527;52.124;5.196;2023-08-30T00:43:57;100701.00;;;25.70
20733;BMP180;10527;52.124;5.196;2023-08-30T00:46:24;100695.00;;;25.70
20733;BMP180;10527;52.124;5.196;2023-08-30T00:48:51;100698.00;;;25.70
20733;BMP180;10527;52.124;5.196;2023-08-30T00:51:18;100691.00;;;25.70
20733;BMP180;10527;52.124;5.196;2023-08-30T00:53:46;100695.00;;;25.70
20733;BMP180;10527;52.124;5.196;2023-08-30T00:56:13;100690.00;;;25.70
20733;BMP180;10527;52.124;5.196;2023-08-30T00:58:40;100687.00;;;25.70
20733;BMP180;10527;52.124;5.196;2023-08-30T01:01:07;100689.00;;;25.70
20733;BMP180;10527;52.124;5.196;2023-08-30T01:03:35;100678.00;;;25.70
20733;BMP180;10527;52.124;5.196;2023-08-30T01:06:02;100679.00;;;25.70
20733;BMP180;10527;52.124;5.196;2023-08-30T01:08:29;100680.00;;;25.70
20733;BMP180;10527;52.124;5.196;2023-08-30T01:11:34;100681.00;;;25.70
20733;BMP180;10527;52.124;5.196;2023-08-30T01:14:18;100672.00;;;25.70
20733;BMP180;10527;52.124;5.196;2023-08-30T01:16:47;100679.00;;;25.70
20733;BMP180;10527;52.124;5.196;2023-08-30T01:19:53;100675.00;;;25.70
20733;BMP180;10527;52.124;5.196;2023-08-30T01:23:08;100677.00;;;25.70
20733;BMP180;10527;52.124;5.196;2023-08-30T01:28:35;100677.00;;;25.70
20733;BMP180;10527;52.124;5.196;2023-08-30T01:31:06;100676.00;;;25.70
20733;BMP180;10527;52.124;5.196;2023-08-30T01:33:35;100670.00;;;25.70
20733;BMP180;10527;52.124;5.196;2023-08-30T01:36:04;100674.00;;;25.70
20733;BMP180;10527;52.124;5.196;2023-08-30T01:38:32;100675.00;;;25.70
20733;BMP180;10527;52.124;5.196;2023-08-30T01:41:01;100669.00;;;25.70
20733;BMP180;10527;52.124;5.196;2023-08-30T01:43:30;100665.00;;;25.70
20733;BMP180;10527;52.124;5.196;2023-08-30T01:46:00;100657.00;;;25.70
20733;BMP180;10527;52.124;5.196;2023-08-30T01:48:30;100659.00;;;25.70
20733;BMP180;10527;52.124;5.196;2023-08-30T01:51:00;100658.00;;;25.70
20733;BMP180;10527;52.124;5.196;2023-08-30T01:53:37;100654.00;;;25.70
20733;BMP180;10527;52.124;5.196;2023-08-30T01:56:04;100649.00;;;25.70
20733;BMP180;10527;52.124;5.196;2023-08-30T01:58:37;100660.00;;;25.70
20733;BMP180;10527;52.124;5.196;2023-08-30T02:01:04;100648.00;;;25.60
20733;BMP180;10527;52.124;5.196;2023-08-30T02:03:31;100652.00;;;25.60
20733;BMP180;10527;52.124;5.196;2023-08-30T02:06:35;100643.00;;;25.60
20733;BMP180;10527;52.124;5.196;2023-08-30T02:09:21;100645.00;;;25.60
20733;BMP180;10527;52.124;5.196;2023-08-30T02:11:52;100644.00;;;25.60
20733;BMP180;10527;52.124;5.196;2023-08-30T02:14:21;100638.00;;;25.60
20733;BMP180;10527;52.124;5.196;2023-08-30T02:16:52;100641.00;;;25.60
20733;BMP180;10527;52.124;5.196;2023-08-30T02:19:21;100648.00;;;25.60
20733;BMP180;10527;52.124;5.196;2023-08-30T02:21:55;100648.00;;;25.60
20733;BMP180;10527;52.124;5.196;2023-08-30T02:24:22;100644.00;;;25.60
20733;BMP180;10527;52.124;5.196;2023-08-30T02:26:48;100648.00;;;25.60
20733;BMP180;10527;52.124;5.196;2023-08-30T02:29:15;100648.00;;;25.60
20733;BMP180;10527;52.124;5.196;2023-08-30T02:31:45;100637.00;;;25.60
20733;BMP180;10527;52.124;5.196;2023-08-30T02:34:14;100635.00;;;25.60
20733;BMP180;10527;52.124;5.196;2023-08-30T02:36:41;100634.00;;;25.60
20733;BMP180;10527;52.124;5.196;2023-08-30T02:39:08;100632.00;;;25.60
20733;BMP180;10527;52.124;5.196;2023-08-30T02:41:35;100631.00;;;25.60
20733;BMP180;10527;52.124;5.196;2023-08-30T02:44:01;100619.00;;;25.50
20733;BMP180;10527;52.124;5.196;2023-08-30T02:46:28;100617.00;;;25.50
20733;BMP180;10527;52.124;5.196;2023-08-30T02:48:57;100617.00;;;25.50
20733;BMP180;10527;52.124;5.196;2023-08-30T02:51:26;100621.00;;;25.50
20733;BMP180;10527;52.124;5.196;2023-08-30T02:53:53;100610.00;;;25.50
20733;BMP180;10527;52.124;5.196;2023-08-30T02:56:22;100607.00;;;25.40
20733;BMP180;10527;52.124;5.196;2023-08-30T02:58:49;100603.00;;;25.40
20733;BMP180;10527;52.124;5.196;2023-08-30T03:01:19;100605.00;;;25.40
20733;BMP180;10527;52.124;5.196;2023-08-30T03:03:46;100598.00;;;25.40
20733;BMP180;10527;52.124;5.196;2023-08-30T03:06:13;100598.00;;;25.40
20733;BMP180;10527;52.124;5.196;2023-08-30T03:08:43;100593.00;;;25.30
20733;BMP180;10527;52.124;5.196;2023-08-30T03:11:11;100589.00;;;25.30
20733;BMP180;10527;52.124;5.196;2023-08-30T03:13:38;100587.00;;;25.30
20733;BMP180;10527;52.124;5.196;2023-08-30T03:16:12;100580.00;;;25.30
20733;BMP180;10527;52.124;5.196;2023-08-30T03:18:40;100581.00;;;25.30
20733;BMP180;10527;52.124;5.196;2023-08-30T03:21:08;100578.00;;;25.30
20733;BMP180;10527;52.124;5.196;2023-08-30T03:23:36;100571.00;;;25.30
20733;BMP180;10527;52.124;5.196;2023-08-30T03:26:11;100572.00;;;25.30
20733;BMP180;10527;52.124;5.196;2023-08-30T03:28:40;100567.00;;;25.20
20733;BMP180;10527;52.124;5.196;2023-08-30T03:31:21;100563.00;;;25.20
20733;BMP180;10527;52.124;5.196;2023-08-30T03:33:50;100559.00;;;25.20
20733;BMP180;10527;52.124;5.196;2023-08-30T03:36:18;100557.00;;;25.10
20733;BMP180;10527;52.124;5.196;2023-08-30T03:38:45;100550.00;;;25.10
20733;BMP180;10527;52.124;5.196;2023-08-30T03:41:15;100552.00;;;25.10
20733;BMP180;10527;52.124;5.196;2023-08-30T03:43:41;100547.00;;;25.00
20733;BMP180;10527;52.124;5.196;2023-08-30T03:46:08;100536.00;;;25.00
20733;BMP180;10527;52.124;5.196;2023-08-30T03:48:54;100539.00;;;25.00
20733;BMP180;10527;52.124;5.196;2023-08-30T03:51:24;100531.00;;;25.00
20733;BMP180;10527;52.124;5.196;2023-08-30T03:53:51;100516.00;;;25.00
20733;BMP180;10527;52.124;5.196;2023-08-30T03:56:18;100526.00;;;24.90
20733;BMP180;10527;52.124;5.196;2023-08-30T03:58:48;100524.00;;;24.90
20733;BMP180;10527;52.124;5.196;2023-08-30T04:01:15;100520.00;;;24.90
20733;BMP180;10527;52.124;5.196;2023-08-30T04:03:42;100517.00;;;24.80
20733;BMP180;10527;52.124;5.196;2023-08-30T04:06:09;100527.00;;;24.80
20733;BMP180;10527;52.124;5.196;2023-08-30T04:08:35;100524.00;;;24.80
20733;BMP180;10527;52.124;5.196;2023-08-30T04:11:05;100516.00;;;24.80
20733;BMP180;10527;52.124;5.196;2023-08-30T04:13:35;100518.00;;;24.80
20733;BMP180;10527;52.124;5.196;2023-08-30T04:16:02;100522.00;;;24.70
20733;BMP180;10527;52.124;5.196;2023-08-30T04:18:30;100520.00;;;24.70
20733;BMP180;10527;52.124;5.196;2023-08-30T04:20:58;100521.00;;;24.70
20733;BMP180;10527;52.124;5.196;2023-08-30T04:23:25;100512.00;;;24.70
20733;BMP180;10527;52.124;5.196;2023-08-30T04:25:52;100519.00;;;24.70
20733;BMP180;10527;52.124;5.196;2023-08-30T04:28:19;100509.00;;;24.70
20733;BMP180;10527;52.124;5.196;2023-08-30T04:30:46;100518.00;;;24.60
20733;BMP180;10527;52.124;5.196;2023-08-30T04:33:15;100517.00;;;24.60
20733;BMP180;10527;52.124;5.196;2023-08-30T04:35:42;100522.00;;;24.60
20733;BMP180;10527;52.124;5.196;2023-08-30T04:38:09;100503.00;;;24.60
20733;BMP180;10527;52.124;5.196;2023-08-30T04:40:36;100496.00;;;24.60
20733;BMP180;10527;52.124;5.196;2023-08-30T04:43:03;100498.00;;;24.60
20733;BMP180;10527;52.124;5.196;2023-08-30T04:45:30;100505.00;;;24.60
20733;BMP180;10527;52.124;5.196;2023-08-30T04:48:04;100495.00;;;24.60
20733;BMP180;10527;52.124;5.196;2023-08-30T04:50:31;100485.00;;;24.50
20733;BMP180;10527;52.124;5.196;2023-08-30T04:52:58;100495.00;;;24.50
20733;BMP180;10527;52.124;5.196;2023-08-30T04:55:25;100494.00;;;24.50
20733;BMP180;10527;52.124;5.196;2023-08-30T04:57:52;100492.00;;;24.50
20733;BMP180;10527;52.124;5.196;2023-08-30T05:00:19;100487.00;;;24.50
20733;BMP180;10527;52.124;5.196;2023-08-30T05:02:46;100485.00;;;24.50
20733;BMP180;10527;52.124;5.196;2023-08-30T05:05:14;100471.00;;;24.50
20733;BMP180;10527;52.124;5.196;2023-08-30T05:07:41;100476.00;;;24.40
20733;BMP180;10527;52.124;5.196;2023-08-30T05:10:08;100476.00;;;24.40
20733;BMP180;10527;52.124;5.196;2023-08-30T05:12:36;100473.00;;;24.40
20733;BMP180;10527;52.124;5.196;2023-08-30T05:15:03;100471.00;;;24.40
20733;BMP180;10527;52.124;5.196;2023-08-30T05:17:33;100473.00;;;24.40
20733;BMP180;10527;52.124;5.196;2023-08-30T05:20:00;100458.00;;;24.40
20733;BMP180;10527;52.124;5.196;2023-08-30T05:22:27;100470.00;;;24.40
20733;BMP180;10527;52.124;5.196;2023-08-30T05:24:53;100470.00;;;24.40
20733;BMP180;10527;52.124;5.196;2023-08-30T05:27:24;100474.00;;;24.30
20733;BMP180;10527;52.124;5.196;2023-08-30T05:29:53;100471.00;;;24.30
20733;BMP180;10527;52.124;5.196;2023-08-30T05:32:25;100475.00;;;24.30
20733;BMP180;10527;52.124;5.196;2023-08-30T05:35:02;100477.00;;;24.30
20733;BMP180;10527;52.124;5.196;2023-08-30T05:38:12;100488.00;;;24.30
20733;BMP180;10527;52.124;5.196;2023-08-30T05:40:41;100482.00;;;24.40
20733;BMP180;10527;52.124;5.196;2023-08-30T05:43:11;100488.00;;;24.40
20733;BMP180;10527;52.124;5.196;2023-08-30T05:45:41;100486.00;;;24.40
20733;BMP180;10527;52.124;5.196;2023-08-30T05:48:08;100495.00;;;24.40
20733;BMP180;10527;52.124;5.196;2023-08-30T05:50:35;100497.00;;;24.40
20733;BMP180;10527;52.124;5.196;2023-08-30T05:53:03;100496.00;;;24.40
20733;BMP180;10527;52.124;5.196;2023-08-30T05:55:30;100500.00;;;24.40
20733;BMP180;10527;52.124;5.196;2023-08-30T05:57:57;100491.00;;;24.40
20733;BMP180;10527;52.124;5.196;2023-08-30T06:00:24;100488.00;;;24.50
20733;BMP180;10527;52.124;5.196;2023-08-30T06:02:52;100485.00;;;24.50
20733;BMP180;10527;52.124;5.196;2023-08-30T06:05:23;100489.00;;;24.50
20733;BMP180;10527;52.124;5.196;2023-08-30T06:07:53;100485.00;;;24.50
20733;BMP180;10527;52.124;5.196;2023-08-30T06:10:20;100476.00;;;24.50
20733;BMP180;10527;52.124;5.196;2023-08-30T06:12:49;100472.00;;;24.50
20733;BMP180;10527;52.124;5.196;2023-08-30T06:15:16;100457.00;;;24.50
20733;BMP180;10527;52.124;5.196;2023-08-30T06:17:46;100462.00;;;24.50
20733;BMP180;10527;52.124;5.196;2023-08-30T06:20:14;100456.00;;;24.50
20733;BMP180;10527;52.124;5.196;2023-08-30T06:22:41;100459.00;;;24.50
20733;BMP180;10527;52.124;5.196;2023-08-30T06:25:12;100458.00;;;24.50
20733;BMP180;10527;52.124;5.196;2023-08-30T06:27:43;100460.00;;;24.60
20733;BMP180;10527;52.124;5.196;2023-08-30T06:30:11;100462.00;;;24.50
20733;BMP180;10527;52.124;5.196;2023-08-30T06:32:41;100457.00;;;24.50
20733;BMP180;10527;52.124;5.196;2023-08-30T06:35:08;100456.00;;;24.50
20733;BMP180;10527;52.124;5.196;2023-08-30T06:37:38;100461.00;;;24.50
20733;BMP180;10527;52.124;5.196;2023-08-30T06:40:06;100464.00;;;24.50
20733;BMP180;10527;52.124;5.196;2023-08-30T06:42:33;100452.00;;;24.50
20733;BMP180;10527;52.124;5.196;2023-08-30T06:45:01;100450.00;;;24.50
20733;BMP180;10527;52.124;5.196;2023-08-30T06:47:28;100447.00;;;24.50
20733;BMP180;10527;52.124;5.196;2023-08-30T06:49:55;100433.00;;;24.40
20733;BMP180;10527;52.124;5.196;2023-08-30T06:52:22;100436.00;;;24.40
20733;BMP180;10527;52.124;5.196;2023-08-30T06:54:49;100436.00;;;24.50
20733;BMP180;10527;52.124;5.196;2023-08-30T06:57:16;100433.00;;;24.50
20733;BMP180;10527;52.124;5.196;2023-08-30T06:59:43;100431.00;;;24.50
20733;BMP180;10527;52.124;5.196;2023-08-30T07:02:09;100424.00;;;24.50
20733;BMP180;10527;52.124;5.196;2023-08-30T07:04:36;100432.00;;;24.50
20733;BMP180;10527;52.124;5.196;2023-08-30T07:07:03;100427.00;;;24.50
20733;BMP180;10527;52.124;5.196;2023-08-30T07:09:33;100427.00;;;24.50
20733;BMP180;10527;52.124;5.196;2023-08-30T07:12:00;100424.00;;;24.50
20733;BMP180;10527;52.124;5.196;2023-08-30T07:14:27;100419.00;;;24.50
20733;BMP180;10527;52.124;5.196;2023-08-30T07:16:54;100420.00;;;24.50
20733;BMP180;10527;52.124;5.196;2023-08-30T07:19:21;100409.00;;;24.50
20733;BMP180;10527;52.124;5.196;2023-08-30T07:21:48;100413.00;;;24.50
20733;BMP180;10527;52.124;5.196;2023-08-30T07:24:15;100400.00;;;24.50
20733;BMP180;10527;52.124;5.196;2023-08-30T07:26:42;100408.00;;;24.50
20733;BMP180;10527;52.124;5.196;2023-08-30T07:29:09;100406.00;;;24.50
20733;BMP180;10527;52.124;5.196;2023-08-30T07:31:36;100397.00;;;24.50
20733;BMP180;10527;52.124;5.196;2023-08-30T07:34:03;100394.00;;;24.50
20733;BMP180;10527;52.124;5.196;2023-08-30T07:36:33;100399.00;;;24.60
20733;BMP180;10527;52.124;5.196;2023-08-30T07:39:13;100391.00;;;24.60
20733;BMP180;10527;52.124;5.196;2023-08-30T07:41:40;100377.00;;;24.60
20733;BMP180;10527;52.124;5.196;2023-08-30T07:44:07;100376.00;;;24.60
20733;BMP180;10527;52.124;5.196;2023-08-30T07:46:34;100378.00;;;24.60
20733;BMP180;10527;52.124;5.196;2023-08-30T07:49:04;100370.00;;;24.60
20733;BMP180;10527;52.124;5.196;2023-08-30T07:51:31;100364.00;;;24.60
20733;BMP180;10527;52.124;5.196;2023-08-30T07:53:58;100358.00;;;24.60
20733;BMP180;10527;52.124;5.196;2023-08-30T07:56:25;100338.00;;;24.60
20733;BMP180;10527;52.124;5.196;2023-08-30T07:58:53;100321.00;;;24.60
20733;BMP180;10527;52.124;5.196;2023-08-30T08:01:23;100335.00;;;24.60
20733;BMP180;10527;52.124;5.196;2023-08-30T08:03:53;100345.00;;;24.60
20733;BMP180;10527;52.124;5.196;2023-08-30T08:06:33;100354.00;;;24.70
20733;BMP180;10527;52.124;5.196;2023-08-30T08:09:01;100356.00;;;24.70
20733;BMP180;10527;52.124;5.196;2023-08-30T08:11:31;100352.00;;;24.70
20733;BMP180;10527;52.124;5.196;2023-08-30T08:13:58;100355.00;;;24.80
20733;BMP180;10527;52.124;5.196;2023-08-30T08:16:28;100357.00;;;24.70
20733;BMP180;10527;52.124;5.196;2023-08-30T08:18:57;100354.00;;;24.80
20733;BMP180;10527;52.124;5.196;2023-08-30T08:21:27;100344.00;;;24.80
20733;BMP180;10527;52.124;5.196;2023-08-30T08:23:54;100349.00;;;24.80
20733;BMP180;10527;52.124;5.196;2023-08-30T08:26:21;100348.00;;;24.80
20733;BMP180;10527;52.124;5.196;2023-08-30T08:28:48;100345.00;;;24.80
20733;BMP180;10527;52.124;5.196;2023-08-30T08:31:17;100353.00;;;24.80
20733;BMP180;10527;52.124;5.196;2023-08-30T08:33:44;100345.00;;;24.80
20733;BMP180;10527;52.124;5.196;2023-08-30T08:36:11;100354.00;;;24.80
20733;BMP180;10527;52.124;5.196;2023-08-30T08:38:38;100344.00;;;24.90
20733;BMP180;10527;52.124;5.196;2023-08-30T08:41:06;100344.00;;;24.90
20733;BMP180;10527;52.124;5.196;2023-08-30T08:43:34;100341.00;;;24.90
20733;BMP180;10527;52.124;5.196;2023-08-30T08:46:15;100337.00;;;24.90
20733;BMP180;10527;52.124;5.196;2023-08-30T08:48:44;100334.00;;;24.90
20733;BMP180;10527;52.124;5.196;2023-08-30T08:51:13;100335.00;;;24.90
20733;BMP180;10527;52.124;5.196;2023-08-30T08:53:42;100336.00;;;25.00
20733;BMP180;10527;52.124;5.196;2023-08-30T08:56:13;100330.00;;;25.00
20733;BMP180;10527;52.124;5.196;2023-08-30T08:58:40;100326.00;;;25.00
20733;BMP180;10527;52.124;5.196;2023-08-30T09:01:12;100331.00;;;25.00
20733;BMP180;10527;52.124;5.196;2023-08-30T09:03:59;100324.00;;;25.00
20733;BMP180;10527;52.124;5.196;2023-08-30T09:06:29;100334.00;;;25.00
20733;BMP180;10527;52.124;5.196;2023-08-30T09:08:56;100333.00;;;25.00
20733;BMP180;10527;52.124;5.196;2023-08-30T09:11:25;100326.00;;;25.00
20733;BMP180;10527;52.124;5.196;2023-08-30T09:14:12;100322.00;;;25.00
20733;BMP180;10527;52.124;5.196;2023-08-30T09:16:38;100331.00;;;25.00
20733;BMP180;10527;52.124;5.196;2023-08-30T09:19:05;100326.00;;;25.10
20733;BMP180;10527;52.124;5.196;2023-08-30T09:21:37;100322.00;;;25.10
20733;BMP180;10527;52.124;5.196;2023-08-30T09:24:06;100325.00;;;25.10
20733;BMP180;10527;52.124;5.196;2023-08-30T09:26:34;100319.00;;;25.20
20733;BMP180;10527;52.124;5.196;2023-08-30T09:29:08;100306.00;;;25.20
20733;BMP180;10527;52.124;5.196;2023-08-30T09:31:39;100313.00;;;25.30
20733;BMP180;10527;52.124;5.196;2023-08-30T09:34:11;100305.00;;;25.30
20733;BMP180;10527;52.124;5.196;2023-08-30T09:36:43;100312.00;;;25.40
20733;BMP180;10527;52.124;5.196;2023-08-30T09:39:14;100317.00;;;25.40
20733;BMP180;10527;52.124;5.196;2023-08-30T09:41:48;100316.00;;;25.50
20733;BMP180;10527;52.124;5.196;2023-08-30T09:44:21;100317.00;;;25.50
20733;BMP180;10527;52.124;5.196;2023-08-30T09:46:55;100310.00;;;25.60
20733;BMP180;10527;52.124;5.196;2023-08-30T09:49:25;100318.00;;;25.60
20733;BMP180;10527;52.124;5.196;2023-08-30T09:51:54;100311.00;;;25.60
20733;BMP180;10527;52.124;5.196;2023-08-30T09:54:25;100314.00;;;25.70
20733;BMP180;10527;52.124;5.196;2023-08-30T09:57:06;100311.00;;;25.70
20733;BMP180;10527;52.124;5.196;2023-08-30T09:59:39;100316.00;;;25.80
20733;BMP180;10527;52.124;5.196;2023-08-30T10:02:07;100310.00;;;25.80
20733;BMP180;10527;52.124;5.196;2023-08-30T10:04:38;100311.00;;;25.90
20733;BMP180;10527;52.124;5.196;2023-08-30T10:07:10;100310.00;;;25.90
20733;BMP180;10527;52.124;5.196;2023-08-30T10:09:39;100316.00;;;26.00
20733;BMP180;10527;52.124;5.196;2023-08-30T10:12:38;100310.00;;;26.00
20733;BMP180;10527;52.124;5.196;2023-08-30T10:15:13;100310.00;;;26.10
20733;BMP180;10527;52.124;5.196;2023-08-30T10:17:45;100310.00;;;26.30
20733;BMP180;10527;52.124;5.196;2023-08-30T10:20:15;100309.00;;;26.40
20733;BMP180;10527;52.124;5.196;2023-08-30T10:22:44;100319.00;;;26.50
20733;BMP180;10527;52.124;5.196;2023-08-30T10:25:21;100324.00;;;26.60
20733;BMP180;10527;52.124;5.196;2023-08-30T10:27:49;100333.00;;;26.70
20733;BMP180;10527;52.124;5.196;2023-08-30T10:30:19;100334.00;;;26.80
20733;BMP180;10527;52.124;5.196;2023-08-30T10:32:54;100333.00;;;26.90
20733;BMP180;10527;52.124;5.196;2023-08-30T10:35:21;100322.00;;;27.00
20733;BMP180;10527;52.124;5.196;2023-08-30T10:38:24;100342.00;;;27.10
20733;BMP180;10527;52.124;5.196;2023-08-30T10:40:55;100338.00;;;27.20
20733;BMP180;10527;52.124;5.196;2023-08-30T10:43:35;100344.00;;;27.20
20733;BMP180;10527;52.124;5.196;2023-08-30T10:46:04;100350.00;;;27.30
20733;BMP180;10527;52.124;5.196;2023-08-30T10:48:39;100343.00;;;27.40
20733;BMP180;10527;52.124;5.196;2023-08-30T10:51:38;100344.00;;;27.50
20733;BMP180;10527;52.124;5.196;2023-08-30T10:54:16;100354.00;;;27.50
20733;BMP180;10527;52.124;5.196;2023-08-30T10:56:56;100355.00;;;27.60
20733;BMP180;10527;52.124;5.196;2023-08-30T10:59:28;100345.00;;;27.60
20733;BMP180;10527;52.124;5.196;2023-08-30T11:02:00;100345.00;;;27.60
20733;BMP180;10527;52.124;5.196;2023-08-30T11:04:27;100353.00;;;27.70
20733;BMP180;10527;52.124;5.196;2023-08-30T11:06:55;100355.00;;;27.70
20733;BMP180;10527;52.124;5.196;2023-08-30T11:09:24;100350.00;;;27.80
20733;BMP180;10527;52.124;5.196;2023-08-30T11:11:53;100358.00;;;27.80
20733;BMP180;10527;52.124;5.196;2023-08-30T11:14:23;100359.00;;;27.70
20733;BMP180;10527;52.124;5.196;2023-08-30T11:16:50;100366.00;;;27.70
20733;BMP180;10527;52.124;5.196;2023-08-30T11:19:16;100364.00;;;27.70
20733;BMP180;10527;52.124;5.196;2023-08-30T11:21:44;100368.00;;;27.70
20733;BMP180;10527;52.124;5.196;2023-08-30T11:24:15;100366.00;;;27.80
20733;BMP180;10527;52.124;5.196;2023-08-30T11:26:43;100354.00;;;27.90
20733;BMP180;10527;52.124;5.196;2023-08-30T11:29:10;100351.00;;;28.00
20733;BMP180;10527;52.124;5.196;2023-08-30T11:31:39;100368.00;;;28.10
20733;BMP180;10527;52.124;5.196;2023-08-30T11:34:06;100379.00;;;28.20
20733;BMP180;10527;52.124;5.196;2023-08-30T11:36:35;100373.00;;;28.20
20733;BMP180;10527;52.124;5.196;2023-08-30T11:39:07;100367.00;;;28.20
20733;BMP180;10527;52.124;5.196;2023-08-30T11:41:38;100372.00;;;28.20
20733;BMP180;10527;52.124;5.196;2023-08-30T11:44:13;100362.00;;;28.20
20733;BMP180;10527;52.124;5.196;2023-08-30T11:46:40;100368.00;;;28.20
20733;BMP180;10527;52.124;5.196;2023-08-30T11:49:08;100365.00;;;28.30
20733;BMP180;10527;52.124;5.196;2023-08-30T11:51:35;100365.00;;;28.30
20733;BMP180;10527;52.124;5.196;2023-08-30T11:54:02;100368.00;;;28.30
20733;BMP180;10527;52.124;5.196;2023-08-30T11:56:33;100358.00;;;28.40
20733;BMP180;10527;52.124;5.196;2023-08-30T11:59:04;100369.00;;;28.40
20733;BMP180;10527;52.124;5.196;2023-08-30T12:01:32;100363.00;;;28.50
20733;BMP180;10527;52.124;5.196;2023-08-30T12:04:10;100361.00;;;28.60
20733;BMP180;10527;52.124;5.196;2023-08-30T12:06:37;100362.00;;;28.60
20733;BMP180;10527;52.124;5.196;2023-08-30T12:09:12;100362.00;;;28.70
20733;BMP180;10527;52.124;5.196;2023-08-30T12:11:39;100369.00;;;28.70
20733;BMP180;10527;52.124;5.196;2023-08-30T12:14:06;100376.00;;;28.70
20733;BMP180;10527;52.124;5.196;2023-08-30T12:16:40;100377.00;;;28.80
20733;BMP180;10527;52.124;5.196;2023-08-30T12:19:11;100380.00;;;28.80
20733;BMP180;10527;52.124;5.196;2023-08-30T12:21:43;100380.00;;;28.90
20733;BMP180;10527;52.124;5.196;2023-08-30T12:24:12;100378.00;;;28.90
20733;BMP180;10527;52.124;5.196;2023-08-30T12:26:39;100384.00;;;29.00
20733;BMP180;10527;52.124;5.196;2023-08-30T12:29:06;100395.00;;;29.00
20733;BMP180;10527;52.124;5.196;2023-08-30T12:31:33;100394.00;;;29.10
20733;BMP180;10527;52.124;5.196;2023-08-30T12:34:00;100380.00;;;29.20
20733;BMP180;10527;52.124;5.196;2023-08-30T12:36:48;100390.00;;;29.30
20733;BMP180;10527;52.124;5.196;2023-08-30T12:39:17;100393.00;;;29.30
20733;BMP180;10527;52.124;5.196;2023-08-30T12:41:44;100393.00;;;29.30
20733;BMP180;10527;52.124;5.196;2023-08-30T12:44:11;100389.00;;;29.40
20733;BMP180;10527;52.124;5.196;2023-08-30T12:46:39;100391.00;;;29.50
20733;BMP180;10527;52.124;5.196;2023-08-30T12:49:05;100388.00;;;29.50
20733;BMP180;10527;52.124;5.196;2023-08-30T12:51:35;100392.00;;;29.50
20733;BMP180;10527;52.124;5.196;2023-08-30T12:54:02;100391.00;;;29.50
20733;BMP180;10527;52.124;5.196;2023-08-30T12:56:29;100395.00;;;29.50
20733;BMP180;10527;52.124;5.196;2023-08-30T12:58:56;100411.00;;;29.50
20733;BMP180;10527;52.124;5.196;2023-08-30T13:01:27;100417.00;;;29.40
20733;BMP180;10527;52.124;5.196;2023-08-30T13:03:55;100417.00;;;29.40
20733;BMP180;10527;52.124;5.196;2023-08-30T13:06:22;100410.00;;;29.40
20733;BMP180;10527;52.124;5.196;2023-08-30T13:08:49;100420.00;;;29.30
20733;BMP180;10527;52.124;5.196;2023-08-30T13:11:15;100418.00;;;29.30
20733;BMP180;10527;52.124;5.196;2023-08-30T13:13:43;100414.00;;;29.20
20733;BMP180;10527;52.124;5.196;2023-08-30T13:16:09;100421.00;;;29.10
20733;BMP180;10527;52.124;5.196;2023-08-30T13:18:36;100430.00;;;29.00
20733;BMP180;10527;52.124;5.196;2023-08-30T13:21:03;100425.00;;;29.00
20733;BMP180;10527;52.124;5.196;2023-08-30T13:23:31;100434.00;;;29.00
20733;BMP180;10527;52.124;5.196;2023-08-30T13:25:58;100438.00;;;29.10
20733;BMP180;10527;52.124;5.196;2023-08-30T13:28:25;100425.00;;;29.10
20733;BMP180;10527;52.124;5.196;2023-08-30T13:30:52;100433.00;;;29.10
20733;BMP180;10527;52.124;5.196;2023-08-30T13:33:24;100430.00;;;29.10
20733;BMP180;10527;52.124;5.196;2023-08-30T13:35:51;100438.00;;;29.10
20733;BMP180;10527;52.124;5.196;2023-08-30T13:38:19;100458.00;;;29.00
20733;BMP180;10527;52.124;5.196;2023-08-30T13:40:48;100445.00;;;28.90
20733;BMP180;10527;52.124;5.196;2023-08-30T13:43:20;100442.00;;;28.90
20733;BMP180;10527;52.124;5.196;2023-08-30T13:45:47;100448.00;;;28.80
20733;BMP180;10527;52.124;5.196;2023-08-30T13:48:15;100473.00;;;28.70
20733;BMP180;10527;52.124;5.196;2023-08-30T13:50:44;100474.00;;;28.60
20733;BMP180;10527;52.124;5.196;2023-08-30T13:53:12;100476.00;;;28.50
20733;BMP180;10527;52.124;5.196;2023-08-30T13:55:39;100476.00;;;28.40
20733;BMP180;10527;52.124;5.196;2023-08-30T13:58:06;100486.00;;;28.30
20733;BMP180;10527;52.124;5.196;2023-08-30T14:00:33;100471.00;;;28.10
20733;BMP180;10527;52.124;5.196;2023-08-30T14:03:03;100473.00;;;28.10
20733;BMP180;10527;52.124;5.196;2023-08-30T14:05:30;100467.00;;;28.00
20733;BMP180;10527;52.124;5.196;2023-08-30T14:08:04;100472.00;;;27.90
20733;BMP180;10527;52.124;5.196;2023-08-30T14:10:33;100462.00;;;27.80
20733;BMP180;10527;52.124;5.196;2023-08-30T14:13:03;100460.00;;;27.70
20733;BMP180;10527;52.124;5.196;2023-08-30T14:15:31;100456.00;;;27.70